Time;durP1;ratioP1;P1;durP2;ratioP2;P2;SDS_P1;SDS_P2;PMS_P1;PMS_P2;Temp;Humidity;BMP_temperature;BMP_pressure;BME280_temperature;BME280_humidity;BME280_pressure;Samples;Min_cycle;Max_cycle;Signal;HPM_P1;HPM_P2
2022/07/27 00:00:16;;;;;;;29.25;28.25;;;24.20;51.90;;;;;;5004035;28;20190;-87
2022/07/27 00:02:42;;;;;;;30.13;29.02;;;24.10;51.90;;;;;;5005112;28;20182;-86
2022/07/27 00:05:08;;;;;;;32.63;31.52;;;24.30;51.50;;;;;;5002845;28;20232;-87
2022/07/27 00:07:33;;;;;;;32.47;31.38;;;24.40;50.80;;;;;;5010279;28;20221;-87
2022/07/27 00:09:59;;;;;;;32.38;31.27;;;24.50;51.40;;;;;;4998913;28;20193;-87
2022/07/27 00:12:25;;;;;;;32.28;31.17;;;24.40;51.20;;;;;;5003744;28;20198;-87
2022/07/27 00:14:50;;;;;;;31.75;30.60;;;24.50;51.20;;;;;;5006621;28;20307;-86
2022/07/27 00:17:21;;;;;;;30.98;29.83;;;24.60;50.50;;;;;;5005383;28;20559;-87
2022/07/27 00:19:47;;;;;;;31.33;30.17;;;24.60;51.30;;;;;;5006305;28;20221;-87
2022/07/27 00:22:13;;;;;;;30.30;29.20;;;24.50;50.80;;;;;;4998566;28;20336;-87
2022/07/27 00:24:39;;;;;;;31.25;30.05;;;24.40;51.30;;;;;;5005726;28;20279;-87
2022/07/27 00:27:04;;;;;;;28.83;27.63;;;24.30;52.20;;;;;;5006651;28;20224;-87
2022/07/27 00:29:30;;;;;;;29.75;28.45;;;24.20;53.40;;;;;;5007889;28;20296;-87
2022/07/27 00:31:55;;;;;;;30.85;29.67;;;24.20;52.90;;;;;;5007806;28;20197;-87
2022/07/27 00:34:21;;;;;;;30.25;29.10;;;24.30;53.00;;;;;;5006505;28;20197;-87
2022/07/27 00:36:47;;;;;;;30.80;29.58;;;24.30;53.10;;;;;;5002979;28;20300;-86
2022/07/27 00:39:12;;;;;;;32.20;31.00;;;24.30;52.80;;;;;;4986395;28;20197;-88
2022/07/27 00:41:38;;;;;;;33.08;31.88;;;24.40;53.00;;;;;;5009294;28;20233;-87
2022/07/27 00:44:05;;;;;;;30.23;29.23;;;24.40;51.90;;;;;;5007499;28;20566;-88
2022/07/27 00:46:32;;;;;;;31.90;30.80;;;24.40;52.80;;;;;;5004992;28;20210;-87
2022/07/27 00:48:58;;;;;;;29.80;28.70;;;24.30;52.60;;;;;;4992861;28;20194;-86
2022/07/27 00:51:24;;;;;;;32.38;31.25;;;24.00;52.60;;;;;;5002638;28;20190;-87
2022/07/27 00:53:52;;;;;;;31.35;30.25;;;23.90;55.40;;;;;;5016692;28;20198;-87
2022/07/27 00:56:18;;;;;;;35.58;34.17;;;23.70;54.90;;;;;;4999896;28;20194;-87
2022/07/27 00:58:48;;;;;;;46.38;44.78;;;23.50;55.60;;;;;;5008042;28;20217;-88
2022/07/27 01:01:15;;;;;;;47.53;45.75;;;23.50;56.40;;;;;;5006806;28;20194;-86
2022/07/27 01:03:40;;;;;;;48.22;46.53;;;23.40;57.20;;;;;;5011168;28;20190;-87
2022/07/27 01:06:07;;;;;;;41.78;40.30;;;23.50;56.10;;;;;;5012279;28;20213;-86
2022/07/27 01:08:33;;;;;;;44.63;43.13;;;23.60;54.90;;;;;;5009571;28;20205;-87
2022/07/27 01:11:00;;;;;;;46.17;44.63;;;23.40;56.50;;;;;;5011727;28;20169;-87
2022/07/27 01:13:26;;;;;;;45.15;43.40;;;23.30;57.30;;;;;;5008057;28;20186;-87
2022/07/27 01:15:52;;;;;;;42.70;41.17;;;23.50;57.00;;;;;;5012693;28;20193;-86
2022/07/27 01:18:36;;;;;;;42.83;41.33;;;23.50;57.30;;;;;;4987416;28;20711;-86
2022/07/27 01:21:03;;;;;;;40.25;38.88;;;23.60;56.40;;;;;;5006902;28;20217;-86
2022/07/27 01:23:33;;;;;;;40.97;39.63;;;23.60;55.80;;;;;;5007081;28;20660;-85
2022/07/27 01:26:02;;;;;;;40.72;39.33;;;23.60;56.40;;;;;;5006233;28;20214;-86
2022/07/27 01:28:28;;;;;;;39.58;38.22;;;23.60;55.60;;;;;;4998941;28;20301;-86
2022/07/27 01:30:55;;;;;;;40.95;39.55;;;23.50;55.90;;;;;;4989766;28;20193;-87
2022/07/27 01:33:26;;;;;;;39.60;38.13;;;23.60;56.80;;;;;;5004778;28;20248;-88
2022/07/27 01:35:56;;;;;;;39.15;37.85;;;23.50;56.20;;;;;;5025879;28;20205;-87
2022/07/27 01:38:22;;;;;;;38.92;37.63;;;23.50;56.90;;;;;;5018650;28;20205;-87
2022/07/27 01:40:49;;;;;;;37.97;36.67;;;23.40;57.00;;;;;;5025500;28;20244;-86
2022/07/27 01:43:15;;;;;;;39.33;38.03;;;23.40;56.70;;;;;;5018572;28;20185;-86
2022/07/27 01:45:40;;;;;;;39.10;37.80;;;23.50;56.40;;;;;;5011812;28;20206;-86
2022/07/27 01:48:06;;;;;;;38.42;37.13;;;23.60;56.20;;;;;;5010415;28;20217;-86
2022/07/27 01:50:33;;;;;;;38.17;36.88;;;23.70;56.30;;;;;;5017630;28;20201;-87
2022/07/27 01:52:58;;;;;;;40.92;39.47;;;23.90;55.50;;;;;;5010001;28;20288;-87
2022/07/27 01:55:24;;;;;;;33.05;31.95;;;23.90;54.50;;;;;;5025613;28;20185;-87
2022/07/27 01:57:50;;;;;;;37.20;35.92;;;24.00;53.90;;;;;;5026239;28;20296;-88
2022/07/27 02:00:16;;;;;;;43.20;41.63;;;23.80;54.40;;;;;;5005348;28;20550;-86
2022/07/27 02:02:41;;;;;;;42.08;40.63;;;23.80;55.30;;;;;;5005269;28;20640;-88
2022/07/27 02:05:10;;;;;;;44.33;42.85;;;23.80;54.80;;;;;;5009312;28;20251;-87
2022/07/27 02:07:38;;;;;;;44.88;43.38;;;23.60;54.30;;;;;;5012125;28;20228;-88
2022/07/27 02:10:04;;;;;;;31.45;30.35;;;23.50;54.70;;;;;;5009226;28;20193;-86
2022/07/27 02:12:36;;;;;;;28.92;27.83;;;23.40;54.10;;;;;;5011352;28;20201;-87
2022/07/27 02:15:11;;;;;;;28.92;27.92;;;23.40;54.60;;;;;;5007911;28;20182;-86
2022/07/27 02:17:38;;;;;;;28.13;27.13;;;23.40;54.50;;;;;;5016942;28;20220;-86
2022/07/27 02:20:05;;;;;;;31.20;30.10;;;23.40;53.60;;;;;;4996082;28;20189;-86
2022/07/27 02:22:31;;;;;;;35.90;34.70;;;23.30;54.10;;;;;;5009862;28;20182;-86
2022/07/27 02:24:57;;;;;;;36.92;35.72;;;23.20;54.00;;;;;;5009650;28;20280;-86
2022/07/27 02:27:23;;;;;;;45.67;44.10;;;23.30;54.30;;;;;;5014908;28;20221;-86
2022/07/27 02:29:49;;;;;;;39.00;37.60;;;23.40;54.50;;;;;;5010015;28;20185;-86
2022/07/27 02:32:15;;;;;;;36.80;35.58;;;23.50;54.20;;;;;;5007714;28;20265;-86
2022/07/27 02:34:41;;;;;;;33.92;32.83;;;23.50;54.10;;;;;;5004228;28;20269;-85
2022/07/27 02:37:07;;;;;;;33.97;32.80;;;23.60;53.80;;;;;;4990378;28;20282;-87
2022/07/27 02:39:33;;;;;;;30.90;29.70;;;23.60;53.60;;;;;;5006162;28;20196;-87
2022/07/27 02:41:59;;;;;;;32.50;31.27;;;23.70;53.30;;;;;;5012544;28;20534;-88
2022/07/27 02:44:24;;;;;;;39.78;38.42;;;23.60;53.90;;;;;;5003778;28;20197;-87
2022/07/27 02:46:50;;;;;;;37.47;36.08;;;23.50;55.20;;;;;;5011624;28;20217;-87
2022/07/27 02:49:16;;;;;;;34.28;32.72;;;23.50;54.20;;;;;;4999959;28;20217;-87
2022/07/27 02:51:42;;;;;;;35.15;33.67;;;23.60;54.60;;;;;;5012382;28;20229;-87
2022/07/27 02:54:07;;;;;;;36.13;34.83;;;23.60;53.80;;;;;;5008777;28;20181;-88
2022/07/27 02:56:33;;;;;;;37.35;35.85;;;23.50;54.70;;;;;;4994021;28;20189;-87
2022/07/27 02:58:59;;;;;;;34.55;33.25;;;23.50;54.90;;;;;;5010845;28;20189;-87
2022/07/27 03:01:24;;;;;;;35.33;34.13;;;23.50;54.30;;;;;;5007583;28;20224;-87
2022/07/27 03:03:50;;;;;;;37.10;35.30;;;23.60;54.10;;;;;;5006218;28;20194;-87
2022/07/27 03:06:16;;;;;;;39.65;38.05;;;23.60;54.80;;;;;;5005743;28;20256;-87
2022/07/27 03:08:42;;;;;;;40.33;38.92;;;23.50;54.80;;;;;;4998167;28;20186;-87
2022/07/27 03:11:08;;;;;;;47.00;45.30;;;23.50;55.40;;;;;;5002806;28;20689;-86
2022/07/27 03:13:34;;;;;;;52.47;50.80;;;23.40;55.90;;;;;;4988468;28;20250;-88
2022/07/27 03:16:00;;;;;;;51.30;49.50;;;23.40;55.70;;;;;;5003429;28;20649;-87
2022/07/27 03:18:25;;;;;;;46.35;44.80;;;23.50;55.50;;;;;;5008741;28;20220;-86
2022/07/27 03:20:51;;;;;;;50.97;49.28;;;23.20;55.60;;;;;;5003468;28;20186;-87
2022/07/27 03:23:17;;;;;;;52.97;51.28;;;23.10;56.40;;;;;;5001030;28;20190;-87
2022/07/27 03:25:43;;;;;;;61.33;59.33;;;23.00;58.00;;;;;;5008988;28;20371;-86
2022/07/27 03:28:08;;;;;;;57.83;55.92;;;22.90;57.10;;;;;;5001874;28;20712;-86
2022/07/27 03:30:34;;;;;;;51.45;49.80;;;22.80;57.20;;;;;;5006185;28;20272;-85
2022/07/27 03:33:00;;;;;;;52.65;50.85;;;22.50;57.40;;;;;;5002271;28;20196;-85
2022/07/27 03:35:26;;;;;;;52.47;50.70;;;22.20;57.90;;;;;;5005389;28;20277;-86
2022/07/27 03:37:51;;;;;;;53.53;51.80;;;22.30;57.60;;;;;;4996832;28;20198;-85
2022/07/27 03:40:17;;;;;;;49.85;48.17;;;22.30;57.60;;;;;;5011623;28;20190;-86
2022/07/27 03:42:43;;;;;;;52.83;51.08;;;22.30;57.20;;;;;;5012261;28;20200;-87
2022/07/27 03:45:09;;;;;;;55.35;53.53;;;22.30;57.50;;;;;;5000009;28;20186;-87
2022/07/27 03:47:35;;;;;;;56.65;54.83;;;22.30;58.50;;;;;;5024039;28;20232;-88
2022/07/27 03:50:01;;;;;;;56.47;54.50;;;22.30;57.10;;;;;;5011495;28;20210;-87
2022/07/27 03:52:27;;;;;;;56.58;54.58;;;22.30;56.80;;;;;;5007536;28;20202;-87
2022/07/27 03:54:52;;;;;;;56.38;54.58;;;22.30;56.80;;;;;;5000904;28;20189;-86
2022/07/27 03:57:18;;;;;;;56.88;55.05;;;22.30;57.10;;;;;;4998312;28;20210;-87
2022/07/27 03:59:43;;;;;;;57.05;55.22;;;22.60;56.70;;;;;;4972985;28;20530;-88
2022/07/27 04:02:09;;;;;;;56.25;54.25;;;22.70;55.90;;;;;;4965470;28;20285;-86
2022/07/27 04:04:35;;;;;;;52.80;51.00;;;22.90;55.50;;;;;;4984377;28;20204;-86
2022/07/27 04:07:00;;;;;;;49.78;48.17;;;22.90;54.90;;;;;;5009636;28;20255;-87
2022/07/27 04:09:27;;;;;;;49.03;47.33;;;22.70;55.40;;;;;;5021215;28;20181;-87
2022/07/27 04:11:53;;;;;;;48.85;47.28;;;22.80;55.00;;;;;;5009205;28;20195;-87
2022/07/27 04:14:19;;;;;;;41.15;39.78;;;22.90;55.20;;;;;;4990795;28;20185;-87
2022/07/27 04:16:47;;;;;;;38.45;37.15;;;22.70;54.80;;;;;;4988882;28;20250;-87
2022/07/27 04:19:12;;;;;;;47.38;45.78;;;22.60;55.70;;;;;;4994477;28;20192;-87
2022/07/27 04:21:38;;;;;;;47.80;46.10;;;22.60;56.00;;;;;;5001075;28;20193;-88
2022/07/27 04:24:04;;;;;;;46.63;44.92;;;22.60;55.60;;;;;;4993178;28;20240;-87
2022/07/27 04:26:30;;;;;;;48.00;46.40;;;22.50;56.10;;;;;;5004061;28;20222;-88
2022/07/27 04:28:56;;;;;;;51.22;49.60;;;22.40;56.40;;;;;;5012967;28;20328;-87
2022/07/27 04:31:22;;;;;;;52.17;50.50;;;22.40;56.60;;;;;;4990130;28;20220;-88
2022/07/27 04:33:48;;;;;;;54.08;52.28;;;22.50;56.50;;;;;;4999397;28;20186;-88
2022/07/27 04:36:14;;;;;;;52.55;50.88;;;22.70;56.10;;;;;;4992055;28;20217;-87
2022/07/27 04:38:39;;;;;;;51.22;49.15;;;22.70;55.90;;;;;;4999046;28;20186;-87
2022/07/27 04:41:05;;;;;;;50.30;48.60;;;22.70;55.70;;;;;;4998139;28;20202;-88
2022/07/27 04:43:31;;;;;;;55.95;54.00;;;22.60;56.00;;;;;;5000965;28;20201;-88
2022/07/27 04:45:57;;;;;;;54.22;52.45;;;22.40;57.10;;;;;;5016968;28;20241;-88
2022/07/27 04:48:23;;;;;;;57.40;55.45;;;22.30;57.70;;;;;;5027667;28;20286;-88
2022/07/27 04:50:48;;;;;;;50.10;48.20;;;22.10;58.20;;;;;;5025071;28;20193;-88
2022/07/27 04:53:15;;;;;;;55.40;53.60;;;22.00;58.80;;;;;;5013098;28;20208;-87
2022/07/27 04:55:42;;;;;;;61.92;59.95;;;21.70;60.40;;;;;;5005385;28;20188;-89
2022/07/27 04:58:08;;;;;;;39.85;38.47;;;21.70;60.30;;;;;;5007563;28;20696;-87
2022/07/27 05:00:34;;;;;;;37.15;35.63;;;21.60;60.50;;;;;;5006349;28;20197;-87
2022/07/27 05:02:59;;;;;;;35.03;33.85;;;21.70;60.80;;;;;;5011300;28;20629;-87
2022/07/27 05:05:25;;;;;;;36.08;34.88;;;21.80;60.40;;;;;;4982084;28;20199;-88
2022/07/27 05:07:51;;;;;;;31.42;30.33;;;21.80;60.40;;;;;;5008896;28;20265;-87
2022/07/27 05:10:17;;;;;;;32.15;30.95;;;21.90;60.00;;;;;;5010178;28;20537;-87
2022/07/27 05:12:43;;;;;;;34.95;33.75;;;21.80;60.20;;;;;;5015630;28;20193;-87
2022/07/27 05:15:09;;;;;;;43.17;41.65;;;21.70;60.70;;;;;;5013929;28;20250;-88
2022/07/27 05:17:35;;;;;;;48.33;46.75;;;21.60;61.30;;;;;;5012023;28;20215;-89
2022/07/27 05:20:01;;;;;;;43.30;41.80;;;21.30;62.00;;;;;;5006093;28;20206;-87
2022/07/27 05:22:27;;;;;;;42.25;40.85;;;21.30;62.50;;;;;;5021626;28;20195;-87
2022/07/27 05:24:53;;;;;;;44.28;42.78;;;21.30;62.50;;;;;;5030892;28;20190;-87
2022/07/27 05:27:18;;;;;;;59.00;57.03;;;21.30;62.70;;;;;;5026058;28;20249;-89
2022/07/27 05:29:44;;;;;;;55.00;53.10;;;21.40;62.70;;;;;;5010441;28;20196;-87
2022/07/27 05:32:09;;;;;;;49.90;48.00;;;21.40;62.60;;;;;;5009467;28;20221;-87
2022/07/27 05:34:35;;;;;;;43.35;41.88;;;21.60;62.40;;;;;;5009839;28;20190;-86
2022/07/27 05:37:01;;;;;;;44.83;43.35;;;21.60;61.60;;;;;;5021667;28;20230;-87
2022/07/27 05:39:27;;;;;;;44.45;42.95;;;21.70;61.30;;;;;;5019054;28;20553;-87
2022/07/27 05:41:53;;;;;;;42.03;40.60;;;21.60;61.80;;;;;;5025883;28;20203;-87
2022/07/27 05:44:19;;;;;;;42.25;40.85;;;21.70;61.70;;;;;;5018029;28;20207;-86
2022/07/27 05:46:44;;;;;;;39.47;38.10;;;21.80;61.30;;;;;;5000357;28;20232;-89
2022/07/27 05:49:10;;;;;;;36.80;35.60;;;21.90;61.30;;;;;;5015137;28;20237;-85
2022/07/27 05:51:37;;;;;;;39.63;38.22;;;21.90;61.20;;;;;;5010084;28;20228;-87
2022/07/27 05:54:03;;;;;;;37.60;36.35;;;21.90;61.40;;;;;;5022260;28;20213;-88
2022/07/27 05:56:28;;;;;;;37.85;36.55;;;21.80;61.90;;;;;;5024831;28;20190;-88
2022/07/27 05:58:54;;;;;;;42.78;41.22;;;21.80;61.40;;;;;;5009932;28;20564;-88
2022/07/27 06:01:20;;;;;;;43.58;42.08;;;21.70;61.90;;;;;;5004366;28;20653;-88
2022/07/27 06:03:46;;;;;;;44.58;42.92;;;21.60;62.70;;;;;;5003736;28;20198;-88
2022/07/27 06:08:57;;;;;;;47.28;45.70;;;21.70;62.80;;;;;;5009211;28;20188;-87
2022/07/27 06:11:22;;;;;;;43.63;42.22;;;21.70;63.20;;;;;;5002371;28;20191;-87
2022/07/27 06:13:49;;;;;;;46.17;44.63;;;21.50;63.00;;;;;;5023689;28;20266;-88
2022/07/27 06:16:15;;;;;;;38.97;37.67;;;21.40;63.90;;;;;;5019595;28;20193;-87
2022/07/27 06:18:41;;;;;;;38.63;37.22;;;21.30;64.50;;;;;;5011777;28;20187;-88
2022/07/27 06:21:07;;;;;;;41.95;40.47;;;21.30;65.10;;;;;;4997546;28;20214;-87
2022/07/27 06:23:33;;;;;;;43.70;41.95;;;21.40;64.30;;;;;;4987100;28;20190;-88
2022/07/27 06:25:59;;;;;;;39.15;37.78;;;21.40;64.60;;;;;;4995725;28;20210;-87
2022/07/27 06:28:24;;;;;;;40.60;38.92;;;21.20;65.00;;;;;;4989106;28;20206;-88
2022/07/27 06:30:52;;;;;;;44.35;42.55;;;21.20;65.20;;;;;;4986407;28;20227;-88
2022/07/27 06:33:26;;;;;;;43.83;42.25;;;21.40;65.40;;;;;;4997309;28;20192;-88
2022/07/27 06:35:53;;;;;;;42.72;41.33;;;21.40;64.60;;;;;;5014971;28;20267;-88
2022/07/27 06:38:19;;;;;;;42.47;41.08;;;21.40;64.50;;;;;;5021467;28;20218;-87
2022/07/27 06:40:46;;;;;;;41.70;40.25;;;21.60;63.70;;;;;;5025827;28;20215;-88
2022/07/27 06:43:12;;;;;;;39.15;37.75;;;21.60;63.60;;;;;;5025702;28;20221;-88
2022/07/27 06:45:37;;;;;;;37.78;36.53;;;21.80;63.70;;;;;;5002220;28;20206;-87
2022/07/27 06:48:03;;;;;;;32.75;31.55;;;21.90;63.30;;;;;;5020292;28;20203;-87
2022/07/27 06:50:29;;;;;;;34.33;33.03;;;22.00;62.10;;;;;;5019695;28;20200;-88
2022/07/27 06:52:55;;;;;;;37.28;35.88;;;21.90;62.00;;;;;;5004295;28;20775;-87
2022/07/27 06:55:20;;;;;;;38.80;37.50;;;21.90;61.70;;;;;;5019160;28;20287;-88
2022/07/27 06:57:46;;;;;;;38.17;36.67;;;21.90;61.70;;;;;;5015110;28;20267;-88
2022/07/27 07:00:12;;;;;;;30.95;29.85;;;22.00;61.60;;;;;;5013237;28;20668;-87
2022/07/27 07:03:10;;;;;;;30.10;28.75;;;22.10;60.10;;;;;;5003220;28;20185;-87
2022/07/27 07:05:46;;;;;;;30.08;28.92;;;22.10;59.90;;;;;;4999222;28;20740;-87
2022/07/27 07:08:13;;;;;;;30.20;29.15;;;22.20;60.10;;;;;;4995832;28;20224;-87
2022/07/27 07:10:40;;;;;;;30.77;29.70;;;22.10;59.90;;;;;;4992146;28;20199;-88
2022/07/27 07:13:07;;;;;;;28.42;27.23;;;22.10;60.20;;;;;;5020338;28;20191;-88
2022/07/27 07:15:34;;;;;;;24.23;23.27;;;22.30;60.00;;;;;;4995529;28;20190;-87
2022/07/27 07:18:02;;;;;;;21.88;21.02;;;22.60;59.10;;;;;;5008379;28;20206;-87
2022/07/27 07:20:29;;;;;;;20.50;19.70;;;22.80;58.30;;;;;;5005602;28;20182;-88
2022/07/27 07:22:55;;;;;;;20.80;20.10;;;22.80;58.00;;;;;;5012285;28;20205;-88
2022/07/27 07:25:21;;;;;;;22.20;21.40;;;22.90;57.20;;;;;;4996761;28;20190;-87
2022/07/27 07:27:47;;;;;;;22.67;21.85;;;23.00;57.30;;;;;;5018652;28;20209;-86
2022/07/27 07:30:13;;;;;;;22.48;21.67;;;22.60;59.10;;;;;;5013436;28;20217;-88
2022/07/27 07:32:39;;;;;;;22.42;21.67;;;22.80;58.90;;;;;;5009494;28;20188;-88
2022/07/27 07:35:05;;;;;;;23.63;22.48;;;22.80;58.80;;;;;;5001992;28;20182;-87
2022/07/27 07:37:31;;;;;;;23.58;22.58;;;22.80;59.00;;;;;;5025308;28;20245;-86
2022/07/27 07:39:58;;;;;;;23.88;22.90;;;22.80;58.40;;;;;;5005693;28;20269;-89
2022/07/27 07:42:24;;;;;;;24.27;23.38;;;22.80;58.60;;;;;;4996330;28;20207;-87
2022/07/27 07:44:50;;;;;;;25.50;24.50;;;22.70;58.60;;;;;;4994807;28;20189;-86
2022/07/27 07:47:15;;;;;;;27.73;26.77;;;22.70;59.50;;;;;;5016939;28;20226;-87
2022/07/27 07:49:41;;;;;;;28.20;27.13;;;22.60;59.90;;;;;;5015351;28;20216;-89
2022/07/27 07:52:07;;;;;;;25.60;24.60;;;22.70;59.40;;;;;;5013492;28;20197;-88
2022/07/27 07:54:33;;;;;;;24.92;24.02;;;22.80;58.60;;;;;;5009629;28;20211;-87
2022/07/27 07:56:58;;;;;;;23.33;22.52;;;22.80;58.70;;;;;;5020017;28;20877;-88
2022/07/27 07:59:24;;;;;;;24.33;23.52;;;22.80;58.70;;;;;;5015092;28;20251;-87
2022/07/27 08:01:50;;;;;;;23.17;22.27;;;22.80;59.00;;;;;;5010859;28;20204;-88
2022/07/27 08:04:16;;;;;;;24.98;23.98;;;22.90;58.50;;;;;;4999042;28;20895;-87
2022/07/27 08:06:42;;;;;;;25.02;24.02;;;22.90;59.30;;;;;;4996397;28;20213;-87
2022/07/27 08:09:07;;;;;;;24.73;23.58;;;22.90;58.50;;;;;;4992106;28;20210;-89
2022/07/27 08:11:33;;;;;;;23.67;22.83;;;22.90;58.10;;;;;;5008000;28;20283;-87
2022/07/27 08:13:59;;;;;;;22.52;21.73;;;22.90;57.80;;;;;;5014385;28;20201;-87
2022/07/27 08:16:25;;;;;;;20.40;19.60;;;23.20;57.60;;;;;;4993754;28;20189;-87
2022/07/27 08:18:51;;;;;;;20.77;20.08;;;23.40;57.10;;;;;;4998617;28;20285;-88
2022/07/27 08:21:16;;;;;;;22.25;21.48;;;23.60;57.00;;;;;;5010839;28;20209;-88
2022/07/27 08:23:42;;;;;;;26.42;25.52;;;23.60;57.00;;;;;;4995385;28;20217;-89
2022/07/27 08:26:08;;;;;;;30.13;28.95;;;23.60;56.90;;;;;;4995179;28;20704;-88
2022/07/27 08:28:34;;;;;;;26.77;25.77;;;23.60;55.90;;;;;;4999192;28;20314;-88
2022/07/27 08:31:00;;;;;;;23.02;21.83;;;23.50;55.50;;;;;;4997231;28;20182;-88
2022/07/27 08:33:25;;;;;;;24.77;23.88;;;23.50;55.80;;;;;;5014465;28;20271;-88
2022/07/27 08:35:51;;;;;;;27.95;27.00;;;23.50;55.10;;;;;;5015978;28;20198;-87
2022/07/27 08:38:17;;;;;;;25.00;24.02;;;23.60;55.00;;;;;;5015376;28;20233;-87
2022/07/27 08:40:44;;;;;;;27.25;26.23;;;23.50;54.90;;;;;;5008152;28;20193;-88
2022/07/27 08:43:11;;;;;;;29.48;28.33;;;23.70;54.60;;;;;;5012054;28;20480;-89
2022/07/27 08:45:37;;;;;;;32.22;31.00;;;24.00;54.70;;;;;;5005448;28;20181;-88
2022/07/27 08:48:03;;;;;;;33.20;32.05;;;24.10;52.80;;;;;;5008930;28;20622;-87
2022/07/27 08:50:30;;;;;;;34.90;33.65;;;24.20;52.20;;;;;;5013873;28;20186;-87
2022/07/27 08:53:03;;;;;;;35.97;34.72;;;24.10;51.60;;;;;;5019546;28;20197;-88
2022/07/27 08:55:30;;;;;;;32.03;31.02;;;24.10;51.90;;;;;;5010602;28;20182;-88
2022/07/27 08:57:56;;;;;;;32.58;31.33;;;23.80;53.30;;;;;;4991226;28;20216;-90
2022/07/27 09:00:22;;;;;;;34.30;33.10;;;23.90;54.50;;;;;;5034360;28;20194;-90
2022/07/27 09:02:48;;;;;;;31.88;30.73;;;24.10;55.00;;;;;;5015704;28;20201;-89
2022/07/27 09:05:14;;;;;;;32.08;30.90;;;23.80;55.60;;;;;;5029315;28;20268;-88
2022/07/27 09:07:41;;;;;;;31.67;30.48;;;24.10;55.10;;;;;;5005989;28;20930;-88
2022/07/27 09:10:07;;;;;;;32.88;31.33;;;24.00;54.70;;;;;;5022954;28;20602;-89
2022/07/27 09:12:34;;;;;;;30.80;29.70;;;24.10;53.90;;;;;;5015169;28;20269;-88
2022/07/27 09:15:13;;;;;;;31.75;30.58;;;24.10;54.00;;;;;;5015806;28;20270;-88
2022/07/27 09:17:43;;;;;;;31.58;30.35;;;24.00;54.80;;;;;;5015388;28;20212;-88
2022/07/27 09:20:11;;;;;;;31.55;30.33;;;23.80;54.80;;;;;;5019915;28;20192;-86
2022/07/27 09:22:51;;;;;;;32.35;30.90;;;24.20;54.30;;;;;;5016272;28;20186;-88
2022/07/27 09:25:22;;;;;;;36.80;35.40;;;24.30;53.80;;;;;;5011513;28;20581;-86
2022/07/27 09:27:52;;;;;;;33.72;32.45;;;24.60;53.10;;;;;;4991856;28;20304;-85
2022/07/27 09:30:20;;;;;;;36.00;34.55;;;24.70;53.20;;;;;;5011353;28;20277;-86
2022/07/27 09:32:54;;;;;;;37.22;35.88;;;25.10;51.00;;;;;;5010897;28;20187;-88
2022/07/27 09:35:21;;;;;;;45.03;43.13;;;25.50;50.00;;;;;;5003285;28;20276;-86
2022/07/27 09:37:46;;;;;;;43.13;41.70;;;25.80;48.40;;;;;;5015316;28;20217;-87
2022/07/27 09:40:15;;;;;;;46.85;45.25;;;25.80;48.10;;;;;;4997153;28;20190;-86
2022/07/27 09:42:41;;;;;;;44.53;42.72;;;26.00;47.80;;;;;;4989136;28;20828;-88
2022/07/27 09:45:27;;;;;;;42.47;41.00;;;26.00;47.90;;;;;;5010542;28;20268;-87
2022/07/27 09:48:04;;;;;;;45.65;44.05;;;26.20;47.20;;;;;;5018022;28;20216;-87
2022/07/27 09:50:30;;;;;;;45.15;43.60;;;26.60;46.40;;;;;;5009354;28;20186;-87
2022/07/27 09:53:12;;;;;;;49.45;47.80;;;26.80;45.70;;;;;;4989392;28;20236;-88
2022/07/27 09:55:40;;;;;;;55.53;53.63;;;27.10;45.20;;;;;;5004825;28;20187;-88
2022/07/27 09:58:06;;;;;;;55.42;53.35;;;27.40;44.00;;;;;;4997212;28;20233;-87
2022/07/27 10:00:32;;;;;;;56.20;54.20;;;27.40;43.50;;;;;;5008941;28;20193;-88
2022/07/27 10:02:58;;;;;;;59.25;57.15;;;27.20;44.80;;;;;;5012031;28;20193;-87
2022/07/27 10:05:24;;;;;;;58.20;56.08;;;27.30;44.80;;;;;;5011644;28;20174;-87
2022/07/27 10:07:52;;;;;;;56.75;54.35;;;27.30;43.70;;;;;;5021347;28;20580;-87
2022/07/27 10:10:18;;;;;;;56.03;54.03;;;27.20;43.90;;;;;;5013938;28;20186;-87
2022/07/27 10:12:44;;;;;;;50.15;48.15;;;27.20;43.70;;;;;;5010939;28;20192;-87
2022/07/27 10:15:11;;;;;;;53.83;51.83;;;27.10;44.00;;;;;;5007838;28;20190;-88
2022/07/27 10:17:38;;;;;;;46.20;44.60;;;27.70;42.70;;;;;;5016590;28;20224;-89
2022/07/27 10:20:08;;;;;;;36.63;34.97;;;27.90;41.40;;;;;;5002390;28;20797;-88
2022/07/27 10:22:55;;;;;;;30.25;29.05;;;27.90;40.00;;;;;;5012069;28;20192;-88
2022/07/27 10:25:26;;;;;;;44.70;43.15;;;27.50;40.00;;;;;;4997295;28;20355;-88
2022/07/27 10:28:11;;;;;;;44.50;43.00;;;27.10;42.00;;;;;;5022564;28;20312;-89
2022/07/27 10:30:38;;;;;;;30.95;29.85;;;27.30;42.20;;;;;;5027656;28;20610;-89
2022/07/27 10:33:46;;;;;;;28.40;27.40;;;27.70;40.20;;;;;;5010276;28;20757;-88
2022/07/27 10:36:26;;;;;;;26.23;25.23;;;27.80;39.10;;;;;;5007228;28;20192;-88
2022/07/27 10:38:57;;;;;;;24.05;23.15;;;27.80;38.50;;;;;;5006252;28;20557;-88
2022/07/27 10:41:28;;;;;;;31.92;30.85;;;27.40;39.00;;;;;;5010381;28;20207;-89
2022/07/27 10:44:21;;;;;;;38.20;36.83;;;27.40;40.10;;;;;;5008599;28;20275;-88
2022/07/27 10:46:51;;;;;;;35.72;34.42;;;27.70;40.20;;;;;;5009470;28;20218;-88
2022/07/27 10:49:19;;;;;;;31.05;29.83;;;27.80;39.70;;;;;;5009190;28;20230;-87
2022/07/27 10:51:45;;;;;;;32.22;31.17;;;27.90;39.00;;;;;;5009247;28;20665;-88
2022/07/27 10:54:33;;;;;;;28.60;27.58;;;28.10;39.50;;;;;;5002935;28;20205;-87
2022/07/27 10:57:01;;;;;;;26.95;25.92;;;28.30;38.80;;;;;;5011367;28;20221;-87
2022/07/27 10:59:38;;;;;;;26.17;25.10;;;28.20;38.10;;;;;;5015814;28;20190;-90
2022/07/27 11:02:12;;;;;;;27.20;26.20;;;28.00;38.90;;;;;;5018051;28;20189;-90
2022/07/27 11:04:51;;;;;;;27.30;26.20;;;28.40;38.30;;;;;;5014623;28;20185;-88
2022/07/27 11:07:19;;;;;;;30.77;29.55;;;28.50;38.30;;;;;;5011821;28;20309;-88
2022/07/27 11:09:49;;;;;;;25.48;24.58;;;28.50;37.60;;;;;;5017536;28;20199;-88
2022/07/27 11:12:16;;;;;;;23.50;22.67;;;28.30;38.80;;;;;;5017798;28;20206;-88
2022/07/27 11:14:45;;;;;;;27.92;26.90;;;28.30;38.50;;;;;;5018344;28;20182;-88
2022/07/27 11:17:11;;;;;;;28.63;27.48;;;28.60;37.40;;;;;;4997761;28;20245;-88
2022/07/27 11:19:36;;;;;;;28.52;27.35;;;28.40;37.70;;;;;;5014649;28;20665;-89
2022/07/27 11:22:02;;;;;;;30.13;28.92;;;28.70;37.50;;;;;;5012634;28;20220;-89
2022/07/27 11:24:28;;;;;;;30.50;29.27;;;28.50;37.60;;;;;;4981926;28;20570;-89
2022/07/27 11:26:54;;;;;;;32.83;31.38;;;28.80;37.50;;;;;;5024739;28;20217;-89
2022/07/27 11:29:23;;;;;;;50.35;48.60;;;29.20;37.60;;;;;;5018662;28;20211;-89
2022/07/27 11:31:53;;;;;;;50.67;48.92;;;29.30;36.60;;;;;;5024952;28;20690;-88
2022/07/27 11:34:27;;;;;;;46.17;44.28;;;29.20;36.60;;;;;;5010903;28;20250;-89
2022/07/27 11:36:53;;;;;;;50.33;48.15;;;29.10;37.40;;;;;;4994268;28;20295;-88
2022/07/27 11:39:24;;;;;;;46.58;44.90;;;29.40;37.10;;;;;;5009623;28;20312;-88
2022/07/27 11:41:53;;;;;;;37.03;35.60;;;28.90;37.00;;;;;;5011555;28;20281;-88
2022/07/27 11:44:19;;;;;;;34.13;32.78;;;28.70;37.00;;;;;;5011802;28;20671;-88
2022/07/27 11:46:47;;;;;;;36.60;35.30;;;28.80;37.20;;;;;;5016572;28;20309;-88
2022/07/27 11:49:15;;;;;;;35.90;34.50;;;29.00;37.40;;;;;;5015553;28;20777;-87
2022/07/27 11:51:42;;;;;;;50.47;48.75;;;29.20;37.30;;;;;;5012446;28;20624;-88
2022/07/27 11:54:18;;;;;;;47.72;46.03;;;29.50;35.60;;;;;;5010098;28;20264;-88
2022/07/27 11:56:48;;;;;;;47.90;46.30;;;29.70;35.10;;;;;;4995547;28;20743;-88
2022/07/27 11:59:16;;;;;;;43.45;41.95;;;29.40;35.60;;;;;;4994934;28;20208;-88
2022/07/27 12:01:51;;;;;;;45.90;44.30;;;29.40;35.20;;;;;;4992180;28;20993;-88
2022/07/27 12:04:28;;;;;;;35.33;34.03;;;29.60;35.20;;;;;;5011631;28;21240;-88
2022/07/27 12:07:20;;;;;;;35.95;34.65;;;29.90;34.00;;;;;;5012510;28;20213;-87
2022/07/27 12:09:49;;;;;;;34.92;33.67;;;29.90;35.00;;;;;;5008175;28;20198;-88
2022/07/27 12:12:20;;;;;;;28.90;27.55;;;30.20;34.60;;;;;;5014725;28;20189;-87
2022/07/27 12:14:53;;;;;;;29.63;28.30;;;30.00;34.10;;;;;;5013594;28;20338;-87
2022/07/27 12:17:25;;;;;;;22.75;21.67;;;30.10;33.90;;;;;;5008060;28;20209;-89
2022/07/27 12:20:08;;;;;;;24.00;23.20;;;30.60;33.40;;;;;;5008916;28;20190;-88
2022/07/27 12:22:42;;;;;;;21.15;20.25;;;30.60;33.70;;;;;;5016075;28;20268;-88
2022/07/27 12:25:09;;;;;;;26.23;25.33;;;30.40;33.20;;;;;;5010810;28;20220;-88
2022/07/27 12:27:36;;;;;;;29.13;27.92;;;30.20;33.90;;;;;;4992479;28;20234;-88
2022/07/27 12:30:14;;;;;;;24.10;23.10;;;29.90;34.40;;;;;;5011944;28;20202;-88
2022/07/27 12:32:42;;;;;;;26.85;25.58;;;30.10;33.70;;;;;;5013256;28;20190;-86